Pagrindinis puslapis
METAR-TAF:

METAR-TAF

Oro uostai :

Buraida, Saudo Arabija

platuma: 26-18N, ilguma: 043-46E, Aukštis: 648 m

Dabartinis oras

Ataskaita buvo paskelbta 1 valandą ir 6 minutes, ne 23:00 UTC
Vėjas 7 kt iš Šiaurės/Šiaurės Vakarų
Temperatūra 28°C
Drėgmė 30%
Slėgis 1008 hPa
Matomumas 10 km arba daugiau
nėra debesų žemiau 1500 m ir nėra kamuolinių lietaus debesų

METAR: OEGS 232300Z 33007KT CAVOK 28/09 Q1008

Laikas: 03:06 (00:06 UTC)

Prognozė

Ataskaita buvo paskelbta 1 valandą ir 6 minutes, ne 23:00 UTC
Prognozė galioja nuo 24 metu 00 UTC su 25 metu 06 UTC
Vėjas 10 kt iš Šiaurės/Šiaurės Vakarų
Matomumas 10 km arba daugiau
nėra debesų žemiau 1500 m ir nėra kamuolinių lietaus debesų
Tapsmas
nuo 24 metu 09 UTC su 24 metu 11 UTC
Vėjas 8 kt iš Rytų/Šiaurės Rytų
Tapsmas
nuo 24 metu 16 UTC su 24 metu 18 UTC
Vėjas 3 kt nuo kintamojo kryptimis
Tapsmas
nuo 24 metu 21 UTC su 24 metu 23 UTC
Vėjas 10 kt iš Šiaurės/Šiaurės Vakarų

TAF: OEGS 232300Z 2400/2506 34010KT CAVOK BECMG 2409/2411 06008KT BECMG 2416/2418 VRB03KT BECMG 2421/2423 34010KT

Orai ataskaitas ir orų prognozės (METAR, TAF).

turimą stotys yra geltonos ir raudonos taškus žemėlapyje.

Perkelti pele per norėdami pamatyti stoties vardą.

Tada spustelėkite, norėdami matyti oro stebėjimo ir prognozės.

Norėdami pakeisti žemėlapį: spustelėkite ant žalios mygtukų su juodo kryžiaus žemyn,; žalią mygtuką su brūkšneliu, jei norite nutolinti; arba žalių rodyklių gretimoms žemėlapius.


METAR-TAF: